MDST

Cibao International Airport

Santiago, Dominican Republic
TAF MDST 261000Z 2612/2712 13008KT 9999 BKN016 PROB30 2612/2614 2000 BR BKN010
Issued Valid From Valid To
Apr-26 @ 10:00 UTC
(3 hours ago)
Apr-26 @ 12:00 UTC
(an hour ago)
Apr-27 @ 12:00 UTC
(in 23 hours)
Apr-26 @ 12:00 to Apr-27 @ 12:00
TAF MDST 261000Z 2612/2712 13008KT 9999 BKN016
Wind Visibility Clouds
130° at 8 knots 10,000+ meters
  • Broken at 1,600' AGL
Probable  (Probability 30%) Apr-26 @ 12:00 to Apr-26 @ 14:00
PROB30 2612/2614 2000 BR BKN010
Visibility Clouds Conditions
1,996 meters
  • Broken at 1,000' AGL
  • Mist
TAF MDST 261000Z 2612/2712 13008KT 9999 BKN016 PROB30 2612/2614 2000 BR BKN010
Issued Apr-26 @ 10:00 UTC
(3 hours ago)
Valid From Apr-26 @ 12:00 UTC
(an hour ago)
Valid To Apr-27 @ 12:00 UTC
(in 23 hours)
Apr-26 @ 12:00 - Apr-27 @ 12:00
Wind Visibility
130° at 8 knots 10,000+ meters
Clouds
  • Broken at 1,600' AGL
Probability 30% Probable Apr-26 @ 12:00 - Apr-26 @ 14:00
Clouds
  • Broken at 1,000' AGL
Conditions
  • Mist